Time;durP1;ratioP1;P1;durP2;ratioP2;P2;SDS_P1;SDS_P2;PMS_P1;PMS_P2;Temp;Humidity;BMP_temperature;BMP_pressure;BME280_temperature;BME280_humidity;BME280_pressure;Samples;Min_cycle;Max_cycle;Signal;HPM_P1;HPM_P2
2023/02/22 00:01:49;;;;;;;40.03;22.90;;;9.70;99.90;;;;;;5035102;28;20244;-62
2023/02/22 00:04:20;;;;;;;49.00;24.73;;;9.70;99.90;;;;;;5035778;28;20228;-61
2023/02/22 00:06:49;;;;;;;40.80;23.43;;;9.40;99.90;;;;;;5036157;28;20234;-62
2023/02/22 00:09:20;;;;;;;38.47;21.50;;;9.20;99.90;;;;;;5023666;28;20630;-62
2023/02/22 00:11:48;;;;;;;38.60;21.57;;;9.50;99.90;;;;;;5021844;28;20754;-62
2023/02/22 00:14:19;;;;;;;41.57;20.63;;;9.60;99.90;;;;;;5035145;28;20229;-62
2023/02/22 00:16:47;;;;;;;38.30;20.10;;;9.70;99.90;;;;;;5034997;28;20233;-62
2023/02/22 00:19:15;;;;;;;39.07;20.90;;;9.80;99.90;;;;;;5024081;28;20225;-62
2023/02/22 00:21:46;;;;;;;42.33;21.53;;;9.80;99.90;;;;;;5015570;28;20255;-62
2023/02/22 00:24:22;;;;;;;36.53;21.43;;;9.80;99.90;;;;;;5015714;28;20230;-62
2023/02/22 00:26:54;;;;;;;35.17;19.90;;;9.80;99.90;;;;;;5015170;28;20234;-62
2023/02/22 00:29:23;;;;;;;35.87;19.27;;;9.80;99.90;;;;;;5027110;28;20646;-62
2023/02/22 00:31:51;;;;;;;37.73;21.83;;;9.90;99.90;;;;;;5034562;28;20247;-62
2023/02/22 00:34:19;;;;;;;40.20;23.57;;;9.70;99.90;;;;;;5035264;28;20574;-62
2023/02/22 00:36:49;;;;;;;45.57;24.23;;;9.50;99.90;;;;;;5034212;28;20608;-62
2023/02/22 00:39:19;;;;;;;49.37;25.43;;;9.30;99.90;;;;;;5034888;28;20226;-62
2023/02/22 00:41:48;;;;;;;39.70;23.53;;;9.20;99.90;;;;;;5026339;28;20682;-62
2023/02/22 00:44:16;;;;;;;48.70;25.13;;;9.00;99.90;;;;;;5033407;28;20275;-62
2023/02/22 00:46:45;;;;;;;42.27;22.10;;;9.00;99.90;;;;;;5028849;28;20222;-62
2023/02/22 00:49:15;;;;;;;43.97;21.13;;;9.00;99.90;;;;;;5033490;28;20263;-62
2023/02/22 00:51:43;;;;;;;49.57;22.33;;;9.40;99.90;;;;;;5034720;28;20697;-62
2023/02/22 00:54:13;;;;;;;41.07;23.07;;;9.70;99.90;;;;;;5034650;28;20627;-62
2023/02/22 00:56:41;;;;;;;46.73;24.03;;;9.70;99.90;;;;;;5019125;28;20693;-62
2023/02/22 00:59:09;;;;;;;52.37;25.97;;;9.80;99.90;;;;;;5014795;28;20223;-62
2023/02/22 01:01:38;;;;;;;45.70;21.93;;;9.60;99.90;;;;;;5012819;28;20235;-62
2023/02/22 01:04:06;;;;;;;49.50;21.30;;;9.80;99.90;;;;;;5014700;28;20685;-62
2023/02/22 01:06:34;;;;;;;40.60;20.23;;;9.80;99.90;;;;;;5023286;28;20230;-62
2023/02/22 01:09:03;;;;;;;44.97;24.63;;;9.80;99.90;;;;;;5025863;28;20221;-62
2023/02/22 01:11:33;;;;;;;48.43;25.27;;;9.60;99.90;;;;;;5034381;28;20225;-62
2023/02/22 01:14:01;;;;;;;42.33;23.17;;;9.40;99.90;;;;;;5031719;28;20228;-62
2023/02/22 01:16:29;;;;;;;42.00;23.37;;;9.40;99.90;;;;;;5033974;28;20213;-62
2023/02/22 01:18:59;;;;;;;48.97;24.03;;;9.30;99.90;;;;;;5034402;28;20229;-62
2023/02/22 01:21:27;;;;;;;40.10;20.60;;;9.20;99.90;;;;;;5033948;28;20224;-62
2023/02/22 01:23:55;;;;;;;43.27;21.27;;;9.40;99.90;;;;;;5028177;28;20218;-62
2023/02/22 01:26:23;;;;;;;46.03;21.87;;;9.60;99.90;;;;;;5014286;28;20260;-62
2023/02/22 01:28:53;;;;;;;45.73;22.67;;;9.70;99.90;;;;;;5012956;28;20320;-62
2023/02/22 01:31:22;;;;;;;43.57;20.97;;;9.60;99.90;;;;;;5013779;28;20241;-62
2023/02/22 01:33:51;;;;;;;41.60;23.37;;;9.70;99.90;;;;;;5016286;28;20292;-62
2023/02/22 01:36:19;;;;;;;40.50;23.73;;;9.50;99.90;;;;;;5033526;28;20240;-62
2023/02/22 01:38:47;;;;;;;39.57;23.47;;;9.30;99.90;;;;;;5032492;28;20237;-62
2023/02/22 01:41:17;;;;;;;36.10;20.70;;;9.10;99.90;;;;;;5032032;28;20213;-62
2023/02/22 01:43:45;;;;;;;38.80;21.07;;;9.10;99.90;;;;;;5027944;28;20356;-62
2023/02/22 01:46:23;;;;;;;35.03;22.23;;;9.40;99.90;;;;;;5029342;28;20225;-62
2023/02/22 01:48:57;;;;;;;43.33;23.37;;;9.20;99.90;;;;;;5012582;28;20222;-62
2023/02/22 01:51:29;;;;;;;35.10;19.73;;;9.10;99.90;;;;;;5013716;28;20237;-62
2023/02/22 01:54:01;;;;;;;38.97;20.23;;;9.20;99.90;;;;;;5013739;28;20225;-62
2023/02/22 01:56:32;;;;;;;35.10;19.63;;;9.40;99.90;;;;;;5013549;28;20226;-62
2023/02/22 01:59:05;;;;;;;34.90;19.00;;;9.40;99.90;;;;;;5012397;28;20240;-62
2023/02/22 02:01:36;;;;;;;43.27;20.83;;;9.40;99.90;;;;;;5011683;28;20255;-62
2023/02/22 02:04:08;;;;;;;39.13;20.50;;;9.50;99.90;;;;;;5017534;28;20732;-63
2023/02/22 02:06:36;;;;;;;38.60;22.70;;;9.60;99.90;;;;;;5034508;28;20697;-62
2023/02/22 02:09:10;;;;;;;43.37;21.67;;;9.50;99.90;;;;;;5025259;28;20222;-62
2023/02/22 02:11:41;;;;;;;39.50;23.30;;;9.40;99.90;;;;;;5032894;28;20233;-62
2023/02/22 02:14:11;;;;;;;41.60;23.50;;;9.50;99.90;;;;;;5027931;28;20689;-62
2023/02/22 02:16:42;;;;;;;38.47;19.67;;;9.30;99.90;;;;;;5031288;28;20590;-62
2023/02/22 02:19:15;;;;;;;42.90;23.00;;;9.30;99.90;;;;;;5031830;28;20325;-62
2023/02/22 02:22:25;;;;;;;49.07;23.73;;;9.20;99.90;;;;;;5031032;28;20565;-62
2023/02/22 02:25:17;;;;;;;44.93;22.57;;;9.00;99.90;;;;;;5008774;28;20241;-62
2023/02/22 02:28:13;;;;;;;46.87;24.50;;;8.90;99.90;;;;;;5013115;28;20252;-62
2023/02/22 02:31:14;;;;;;;46.67;25.03;;;8.90;99.90;;;;;;5012565;28;20283;-62
2023/02/22 02:33:52;;;;;;;48.63;25.03;;;8.80;99.90;;;;;;5013059;28;20268;-62
2023/02/22 02:36:30;;;;;;;47.90;24.57;;;8.80;99.90;;;;;;5019968;28;20238;-62
2023/02/22 02:39:05;;;;;;;40.60;22.23;;;8.80;99.90;;;;;;5032610;28;20217;-62
2023/02/22 02:41:39;;;;;;;42.00;22.07;;;8.90;99.90;;;;;;5028803;28;20647;-62
2023/02/22 02:44:14;;;;;;;42.53;22.20;;;8.90;99.90;;;;;;5020411;28;20220;-62
2023/02/22 02:46:50;;;;;;;42.80;22.47;;;8.80;99.90;;;;;;5032488;28;20615;-62
2023/02/22 02:49:30;;;;;;;42.70;23.40;;;9.00;99.90;;;;;;5013314;28;20592;-62
2023/02/22 02:51:59;;;;;;;46.77;23.37;;;9.10;99.90;;;;;;5021339;28;20684;-62
2023/02/22 02:54:28;;;;;;;43.67;22.53;;;9.00;99.90;;;;;;5032563;28;20222;-62
2023/02/22 02:56:56;;;;;;;38.70;20.37;;;8.80;99.90;;;;;;5031341;28;20688;-62
2023/02/22 02:59:27;;;;;;;46.33;23.97;;;9.00;99.90;;;;;;5032850;28;20577;-62
2023/02/22 03:02:12;;;;;;;42.60;22.50;;;8.90;99.90;;;;;;5028974;28;20300;-62
2023/02/22 03:04:58;;;;;;;43.47;21.23;;;8.80;99.90;;;;;;5029177;28;20231;-62
2023/02/22 03:07:42;;;;;;;49.27;25.50;;;8.80;99.90;;;;;;5033475;28;20220;-61
2023/02/22 03:10:26;;;;;;;45.13;23.30;;;8.70;99.90;;;;;;5012798;28;20563;-62
2023/02/22 03:13:03;;;;;;;39.03;19.67;;;8.70;99.90;;;;;;5027730;28;20718;-61
2023/02/22 03:15:42;;;;;;;54.63;25.77;;;8.80;99.90;;;;;;5031085;28;20654;-62
2023/02/22 03:24:19;;;;;;;49.47;23.47;;;8.60;99.90;;;;;;5397234;23;20288;-62
2023/02/22 03:26:53;;;;;;;51.37;25.80;;;8.60;99.90;;;;;;4853783;29;20230;-62
2023/02/22 03:29:25;;;;;;;51.60;25.27;;;8.60;99.90;;;;;;4859504;29;20234;-62
2023/02/22 03:32:00;;;;;;;51.07;25.67;;;8.60;99.90;;;;;;4847519;29;20243;-62
2023/02/22 03:37:33;;;;;;;58.77;27.07;;;8.60;99.90;;;;;;4578592;27;20307;-61
2023/02/22 03:40:12;;;;;;;59.10;26.50;;;8.60;99.90;;;;;;4815879;29;20237;-61
2023/02/22 03:42:46;;;;;;;53.60;28.03;;;8.60;99.90;;;;;;4814062;29;20237;-61
2023/02/22 03:45:17;;;;;;;67.40;29.03;;;8.60;99.90;;;;;;4814046;29;20325;-61
2023/02/22 03:47:50;;;;;;;62.30;29.07;;;8.60;99.90;;;;;;4814007;29;20260;-61
2023/02/22 03:50:21;;;;;;;62.07;29.17;;;8.60;99.90;;;;;;4813974;29;20240;-61
2023/02/22 03:52:50;;;;;;;64.13;30.20;;;8.70;99.90;;;;;;4814414;29;20256;-61
2023/02/22 03:55:27;;;;;;;76.13;31.70;;;8.60;99.90;;;;;;4813579;29;20237;-61
2023/02/22 03:57:58;;;;;;;75.30;32.37;;;8.60;99.90;;;;;;4814098;29;20244;-61
2023/02/22 04:00:31;;;;;;;78.13;31.13;;;8.60;99.90;;;;;;4816095;29;20319;-61
2023/02/22 04:03:00;;;;;;;76.27;32.03;;;8.60;99.90;;;;;;4832078;29;20237;-61
2023/02/22 04:05:28;;;;;;;68.57;30.40;;;8.60;99.90;;;;;;4831651;29;20240;-60
2023/02/22 04:07:58;;;;;;;69.50;28.87;;;8.60;99.90;;;;;;4844058;29;20257;-61
2023/02/22 04:10:28;;;;;;;69.90;28.30;;;8.60;99.90;;;;;;4816497;29;20239;-61
2023/02/22 04:12:56;;;;;;;68.83;29.10;;;8.60;99.90;;;;;;4813809;29;20249;-61
2023/02/22 04:15:25;;;;;;;64.30;28.80;;;8.50;99.90;;;;;;4818991;29;20243;-61
2023/02/22 04:17:59;;;;;;;63.03;27.40;;;8.50;99.90;;;;;;4839377;29;20244;-61
2023/02/22 04:20:27;;;;;;;66.63;28.60;;;8.50;99.90;;;;;;4813683;29;20232;-61
2023/02/22 04:22:59;;;;;;;66.10;28.13;;;8.50;99.90;;;;;;4843307;29;20582;-60
2023/02/22 04:25:29;;;;;;;67.40;28.90;;;8.50;99.90;;;;;;4831649;29;20239;-61
2023/02/22 04:28:02;;;;;;;67.83;28.20;;;8.50;99.90;;;;;;4831946;29;20315;-61
2023/02/22 04:30:38;;;;;;;68.53;28.20;;;8.50;99.90;;;;;;4831596;29;20265;-60
2023/02/22 04:33:10;;;;;;;70.33;29.27;;;8.50;99.90;;;;;;4832073;29;20240;-61
2023/02/22 04:35:39;;;;;;;64.03;28.87;;;8.50;99.90;;;;;;4837077;29;20253;-60
2023/02/22 04:38:08;;;;;;;71.47;29.60;;;8.50;99.90;;;;;;4831236;29;20307;-61
2023/02/22 04:40:38;;;;;;;75.97;31.53;;;8.50;99.90;;;;;;4820882;29;20243;-61
2023/02/22 04:43:07;;;;;;;69.33;29.60;;;8.50;99.90;;;;;;4822465;29;20222;-61
2023/02/22 04:45:35;;;;;;;70.40;29.13;;;8.50;99.90;;;;;;4821684;29;20237;-61
2023/02/22 04:48:04;;;;;;;71.67;29.07;;;8.50;99.90;;;;;;4822106;29;20235;-61
2023/02/22 04:50:32;;;;;;;74.60;31.33;;;8.60;99.90;;;;;;4822701;29;20239;-60
2023/02/22 04:53:03;;;;;;;75.07;30.93;;;8.60;99.90;;;;;;4826721;29;20235;-61
2023/02/22 04:55:31;;;;;;;77.37;31.53;;;8.50;99.90;;;;;;4821101;29;20264;-61
2023/02/22 04:58:00;;;;;;;77.77;30.53;;;8.60;99.90;;;;;;4821313;29;20294;-61
2023/02/22 05:00:28;;;;;;;76.27;27.47;;;8.70;99.90;;;;;;4820416;29;20250;-61
2023/02/22 05:03:00;;;;;;;96.63;35.80;;;9.10;99.90;;;;;;4821809;29;20233;-61
2023/02/22 05:05:29;;;;;;;79.43;32.73;;;8.90;99.90;;;;;;4823873;29;20334;-61
2023/02/22 05:07:57;;;;;;;84.23;33.60;;;8.80;99.90;;;;;;4831696;29;20232;-61
2023/02/22 05:10:25;;;;;;;84.83;33.27;;;8.70;99.90;;;;;;4822513;29;20232;-60
2023/02/22 05:12:53;;;;;;;79.17;34.33;;;8.60;99.90;;;;;;4823487;29;20298;-61
2023/02/22 05:15:24;;;;;;;79.60;33.63;;;8.60;99.90;;;;;;4818706;29;20244;-61
2023/02/22 05:17:52;;;;;;;80.07;34.27;;;8.60;99.90;;;;;;4814162;29;20645;-61
2023/02/22 05:20:24;;;;;;;82.33;35.07;;;8.60;99.90;;;;;;4813748;29;20233;-61
2023/02/22 05:22:52;;;;;;;78.50;33.43;;;8.60;99.90;;;;;;4813450;29;20233;-61
2023/02/22 05:25:20;;;;;;;84.23;33.00;;;8.60;99.90;;;;;;4813812;29;20229;-61
2023/02/22 05:27:52;;;;;;;84.57;35.10;;;8.70;99.90;;;;;;4814340;29;20233;-61
2023/02/22 05:30:24;;;;;;;87.03;35.57;;;8.60;99.90;;;;;;4813353;29;20232;-61
2023/02/22 05:32:52;;;;;;;82.80;35.23;;;8.60;99.90;;;;;;4817988;29;20236;-61
2023/02/22 05:35:22;;;;;;;82.93;36.37;;;8.60;99.90;;;;;;4847970;29;20695;-61
2023/02/22 05:37:50;;;;;;;84.93;35.77;;;8.60;99.90;;;;;;4834712;29;20244;-61
2023/02/22 05:40:20;;;;;;;89.63;36.37;;;8.60;99.90;;;;;;4828033;29;20239;-61
2023/02/22 05:42:48;;;;;;;90.33;37.13;;;8.60;99.90;;;;;;4814118;29;20229;-61
2023/02/22 05:45:18;;;;;;;89.30;37.07;;;8.60;99.90;;;;;;4827354;29;20704;-61
2023/02/22 05:47:47;;;;;;;93.17;37.93;;;8.60;99.90;;;;;;4832935;29;21282;-61
2023/02/22 05:50:18;;;;;;;90.63;36.50;;;8.60;99.90;;;;;;4833755;29;20704;-61
2023/02/22 05:52:47;;;;;;;93.13;37.40;;;8.60;99.90;;;;;;4832871;29;20270;-61
2023/02/22 05:55:18;;;;;;;94.40;37.47;;;8.60;99.90;;;;;;4831599;29;20238;-61
2023/02/22 05:57:47;;;;;;;94.37;37.37;;;8.60;99.90;;;;;;4832930;29;20252;-61
2023/02/22 06:00:19;;;;;;;96.07;37.70;;;8.60;99.90;;;;;;4833113;29;20239;-61
2023/02/22 06:02:53;;;;;;;94.97;38.40;;;8.60;99.90;;;;;;4830221;29;20240;-61
2023/02/22 06:05:21;;;;;;;98.80;38.20;;;8.60;99.90;;;;;;4833337;29;20244;-61
2023/02/22 06:07:49;;;;;;;95.83;37.17;;;8.60;99.90;;;;;;4835642;29;20757;-61
2023/02/22 06:10:18;;;;;;;102.63;38.53;;;8.60;99.90;;;;;;4834152;29;20244;-61
2023/02/22 06:12:47;;;;;;;98.67;37.40;;;8.60;99.90;;;;;;4833897;29;20232;-61
2023/02/22 06:15:15;;;;;;;96.23;38.80;;;8.60;99.90;;;;;;4833675;29;20245;-60
2023/02/22 06:17:44;;;;;;;91.03;37.87;;;8.60;99.90;;;;;;4834384;29;20240;-61
2023/02/22 06:20:16;;;;;;;91.53;37.20;;;8.60;99.90;;;;;;4834225;29;20252;-60
2023/02/22 06:22:46;;;;;;;89.90;37.23;;;8.60;99.90;;;;;;4833814;29;20589;-60
2023/02/22 06:25:15;;;;;;;99.23;37.77;;;8.60;99.90;;;;;;4834102;29;20289;-61
2023/02/22 06:27:43;;;;;;;98.80;38.23;;;8.60;99.90;;;;;;4833928;29;20235;-61
2023/02/22 06:30:15;;;;;;;102.67;39.07;;;8.60;99.90;;;;;;4834288;29;20239;-60
2023/02/22 06:32:43;;;;;;;94.23;35.93;;;8.60;99.90;;;;;;4833286;29;20568;-61
2023/02/22 06:35:11;;;;;;;99.83;39.93;;;8.60;99.90;;;;;;4830745;29;20278;-60
2023/02/22 06:37:41;;;;;;;101.10;37.37;;;8.50;99.90;;;;;;4832937;29;20243;-61
2023/02/22 06:40:10;;;;;;;96.83;37.47;;;8.60;99.90;;;;;;4833934;29;20708;-61
2023/02/22 06:42:38;;;;;;;103.27;37.57;;;8.60;99.90;;;;;;4834318;29;20240;-61
2023/02/22 06:45:07;;;;;;;98.00;35.93;;;8.60;99.90;;;;;;4848734;29;20242;-61
2023/02/22 06:47:39;;;;;;;85.43;35.43;;;8.60;99.90;;;;;;4848093;29;20310;-61
2023/02/22 06:50:08;;;;;;;95.87;35.70;;;8.60;99.90;;;;;;4826014;29;20324;-61
2023/02/22 06:52:41;;;;;;;95.90;35.20;;;8.60;99.90;;;;;;4826180;29;20268;-61
2023/02/22 06:55:11;;;;;;;96.30;36.10;;;8.60;99.90;;;;;;4833965;29;20610;-60
2023/02/22 06:57:39;;;;;;;98.07;37.07;;;8.50;99.90;;;;;;4832854;29;20236;-60
2023/02/22 07:00:08;;;;;;;98.77;36.80;;;8.60;99.90;;;;;;4829107;29;20316;-61
2023/02/22 07:02:37;;;;;;;104.60;38.27;;;8.50;99.90;;;;;;4820404;29;20258;-61
2023/02/22 07:05:05;;;;;;;101.40;36.63;;;8.60;99.90;;;;;;4826438;29;20232;-61
2023/02/22 07:07:33;;;;;;;97.40;37.33;;;8.50;99.90;;;;;;4837858;29;20255;-61
2023/02/22 07:10:02;;;;;;;86.10;32.33;;;8.60;99.90;;;;;;4838323;29;20243;-61
2023/02/22 07:12:31;;;;;;;106.17;37.00;;;8.60;99.90;;;;;;4819472;29;20240;-61
2023/02/22 07:14:59;;;;;;;97.67;34.93;;;8.60;99.90;;;;;;4817234;29;20244;-61
2023/02/22 07:17:27;;;;;;;98.10;35.40;;;8.60;99.90;;;;;;4817932;29;20248;-61
2023/02/22 07:19:55;;;;;;;109.70;37.47;;;8.60;99.90;;;;;;4817862;29;20243;-61
2023/02/22 07:22:23;;;;;;;90.30;33.23;;;8.60;99.90;;;;;;4812122;29;20233;-59
2023/02/22 07:24:51;;;;;;;112.03;38.03;;;8.60;99.90;;;;;;4809128;29;20255;-59
2023/02/22 07:27:19;;;;;;;98.20;34.87;;;8.60;99.90;;;;;;4809022;29;20236;-59
2023/02/22 07:29:49;;;;;;;98.07;33.80;;;8.60;99.90;;;;;;4817964;29;20259;-59
2023/02/22 07:32:17;;;;;;;96.70;36.80;;;8.60;99.90;;;;;;4844928;29;20317;-59
2023/02/22 07:34:45;;;;;;;94.03;35.40;;;8.70;99.90;;;;;;4833060;29;20236;-59
2023/02/22 07:37:13;;;;;;;101.80;35.43;;;8.80;99.90;;;;;;4826872;29;20558;-60
2023/02/22 07:39:42;;;;;;;90.73;34.13;;;8.80;99.90;;;;;;4826591;29;20236;-59
2023/02/22 07:42:10;;;;;;;100.63;36.77;;;8.80;99.90;;;;;;4826737;29;20319;-59
2023/02/22 07:44:38;;;;;;;95.17;35.33;;;8.80;99.90;;;;;;4826923;29;20310;-59
2023/02/22 07:47:11;;;;;;;95.03;35.13;;;8.70;99.90;;;;;;4826616;29;20235;-59
2023/02/22 07:49:39;;;;;;;94.73;34.67;;;8.80;99.90;;;;;;4817181;29;20236;-59
2023/02/22 07:52:07;;;;;;;90.30;33.47;;;8.80;99.90;;;;;;4822354;29;20236;-59
2023/02/22 07:54:35;;;;;;;93.87;35.63;;;8.90;99.90;;;;;;4821756;29;20236;-59
2023/02/22 07:57:03;;;;;;;91.93;33.73;;;9.00;99.90;;;;;;4822710;29;20255;-60
2023/02/22 07:59:32;;;;;;;85.33;33.60;;;9.10;99.90;;;;;;4821590;29;20244;-59
2023/02/22 08:02:00;;;;;;;88.97;33.07;;;9.30;99.90;;;;;;4821657;29;20342;-59
2023/02/22 08:04:30;;;;;;;82.20;33.50;;;9.30;99.90;;;;;;4822090;29;20233;-59
2023/02/22 08:06:58;;;;;;;89.20;34.53;;;9.40;99.90;;;;;;4822131;29;20258;-60
2023/02/22 08:09:26;;;;;;;81.77;32.60;;;9.40;99.90;;;;;;4822829;29;20235;-60
2023/02/22 08:11:54;;;;;;;83.77;32.53;;;9.40;99.90;;;;;;4822079;29;20235;-61
2023/02/22 08:14:22;;;;;;;77.50;31.27;;;9.50;99.90;;;;;;4822201;29;20237;-63
2023/02/22 08:16:50;;;;;;;76.13;31.40;;;9.60;99.90;;;;;;4822085;29;20228;-63
2023/02/22 08:19:18;;;;;;;69.63;29.80;;;9.70;99.90;;;;;;4821140;29;20263;-62
2023/02/22 08:21:47;;;;;;;72.80;30.20;;;9.70;99.90;;;;;;4821684;29;20244;-62
2023/02/22 08:24:15;;;;;;;73.03;35.50;;;9.80;99.90;;;;;;4821469;29;20454;-64
2023/02/22 08:26:45;;;;;;;65.60;31.43;;;9.80;99.90;;;;;;4821343;29;20297;-64
2023/02/22 08:29:13;;;;;;;64.33;30.40;;;9.90;99.90;;;;;;4821919;29;20236;-64
2023/02/22 08:31:41;;;;;;;62.53;28.63;;;10.00;99.90;;;;;;4821164;29;20237;-64
2023/02/22 08:34:09;;;;;;;59.30;28.70;;;10.00;99.90;;;;;;4822959;29;20235;-64
2023/02/22 08:36:42;;;;;;;66.30;29.77;;;10.00;99.90;;;;;;4822129;29;20266;-64
2023/02/22 08:39:11;;;;;;;62.23;27.53;;;10.00;99.90;;;;;;4821489;29;20236;-64
2023/02/22 08:41:39;;;;;;;59.23;27.87;;;10.00;99.90;;;;;;4821114;29;20236;-64
2023/02/22 08:44:07;;;;;;;58.33;27.33;;;10.10;99.90;;;;;;4821430;29;20558;-64
2023/02/22 08:46:35;;;;;;;56.87;27.83;;;10.30;99.90;;;;;;4821253;29;20236;-64
2023/02/22 08:49:03;;;;;;;51.30;24.83;;;10.30;99.90;;;;;;4820876;29;20240;-64
2023/02/22 08:51:35;;;;;;;52.27;25.47;;;10.30;99.90;;;;;;4820988;29;20242;-64
2023/02/22 08:54:05;;;;;;;49.13;25.87;;;10.20;99.90;;;;;;4821363;29;20245;-64
2023/02/22 08:56:35;;;;;;;47.73;24.77;;;10.20;99.90;;;;;;4821372;29;20236;-64
2023/02/22 08:59:03;;;;;;;45.97;24.83;;;10.20;99.90;;;;;;4821461;29;20579;-64
2023/02/22 09:01:33;;;;;;;52.30;26.07;;;10.20;99.90;;;;;;4820873;29;20237;-64
2023/02/22 09:04:02;;;;;;;45.17;23.30;;;10.10;99.90;;;;;;4821482;29;21434;-64
2023/02/22 09:06:30;;;;;;;47.53;24.57;;;10.20;99.90;;;;;;4821059;29;20268;-64
2023/02/22 09:08:58;;;;;;;51.07;24.53;;;10.10;99.90;;;;;;4821186;29;20229;-64
2023/02/22 09:11:26;;;;;;;44.10;23.03;;;10.10;99.90;;;;;;4821384;29;20320;-64
2023/02/22 09:13:55;;;;;;;41.20;23.27;;;10.00;99.90;;;;;;4821153;29;20656;-64
2023/02/22 09:16:23;;;;;;;41.93;23.37;;;9.90;99.90;;;;;;4820768;29;20239;-64
2023/02/22 09:18:51;;;;;;;39.93;20.80;;;9.90;99.90;;;;;;4820577;29;20654;-64
2023/02/22 09:21:20;;;;;;;39.30;21.47;;;9.80;99.90;;;;;;4821497;29;20260;-64
2023/02/22 09:23:48;;;;;;;40.50;21.87;;;9.80;99.90;;;;;;4820987;29;20230;-64
2023/02/22 09:26:16;;;;;;;42.90;22.67;;;9.90;99.90;;;;;;4820844;29;20237;-64
2023/02/22 09:28:44;;;;;;;41.03;22.23;;;9.90;99.90;;;;;;4821063;29;20577;-64
2023/02/22 09:31:14;;;;;;;38.57;21.97;;;9.90;99.90;;;;;;4820400;29;20601;-64
2023/02/22 09:33:43;;;;;;;39.70;20.60;;;10.00;99.90;;;;;;4820967;29;20624;-64
2023/02/22 09:36:14;;;;;;;40.67;20.83;;;10.00;99.90;;;;;;4820601;29;20245;-64
2023/02/22 09:38:42;;;;;;;32.60;19.43;;;10.00;99.90;;;;;;4820163;29;20243;-64
2023/02/22 09:41:18;;;;;;;34.77;19.53;;;10.00;99.90;;;;;;4821186;29;20230;-64
2023/02/22 09:43:55;;;;;;;33.57;18.37;;;10.00;99.90;;;;;;4820063;29;20600;-64
2023/02/22 09:46:30;;;;;;;33.97;19.40;;;10.10;99.90;;;;;;4820747;29;20240;-64
2023/02/22 09:49:04;;;;;;;35.97;19.63;;;10.10;99.90;;;;;;4820002;29;20720;-64
2023/02/22 09:51:38;;;;;;;36.23;20.17;;;10.10;99.90;;;;;;4820672;29;20241;-64
2023/02/22 09:54:16;;;;;;;34.47;19.80;;;10.10;99.90;;;;;;4821015;29;20232;-64
2023/02/22 09:56:46;;;;;;;30.80;17.80;;;10.10;99.90;;;;;;4820672;29;20686;-64
2023/02/22 09:59:20;;;;;;;33.60;18.53;;;10.20;99.90;;;;;;4820493;29;20249;-64
2023/02/22 10:01:55;;;;;;;31.17;18.20;;;10.20;99.90;;;;;;4819738;29;20244;-64
2023/02/22 10:04:30;;;;;;;33.97;17.57;;;10.30;99.90;;;;;;4820357;29;20248;-64
2023/02/22 10:07:06;;;;;;;30.73;17.30;;;10.30;99.90;;;;;;4819618;29;20728;-64
2023/02/22 10:09:41;;;;;;;31.00;17.90;;;10.30;99.90;;;;;;4818750;29;20238;-64
2023/02/22 10:12:14;;;;;;;28.57;17.60;;;10.30;99.90;;;;;;4820314;29;20241;-64
2023/02/22 10:15:06;;;;;;;27.57;16.60;;;10.40;99.90;;;;;;4818255;29;20240;-64
2023/02/22 10:17:40;;;;;;;30.07;17.13;;;10.50;99.90;;;;;;4820642;29;20265;-64
2023/02/22 10:20:21;;;;;;;27.73;17.27;;;10.70;99.90;;;;;;4820586;29;20253;-64
2023/02/22 10:22:59;;;;;;;26.93;16.33;;;10.80;99.90;;;;;;4819857;29;20236;-64
2023/02/22 10:25:34;;;;;;;25.17;17.03;;;11.00;99.90;;;;;;4819027;29;20600;-64
2023/02/22 10:28:11;;;;;;;27.07;16.13;;;11.00;99.90;;;;;;4820316;29;20709;-64
2023/02/22 10:30:43;;;;;;;26.37;16.90;;;11.20;99.90;;;;;;4819895;29;20234;-64
2023/02/22 10:33:17;;;;;;;24.47;16.67;;;11.30;99.90;;;;;;4820384;29;20689;-64
2023/02/22 10:35:48;;;;;;;24.97;17.07;;;11.20;99.90;;;;;;4819592;29;20256;-64
2023/02/22 10:38:22;;;;;;;26.13;16.37;;;11.10;99.90;;;;;;4819929;29;20622;-64
2023/02/22 10:40:56;;;;;;;25.97;17.30;;;10.90;99.90;;;;;;4819083;29;20758;-64
2023/02/22 10:43:25;;;;;;;26.37;17.13;;;10.90;99.90;;;;;;4819732;29;20233;-64
2023/02/22 10:45:57;;;;;;;26.30;17.43;;;10.80;99.90;;;;;;4820089;29;20306;-64
2023/02/22 10:48:29;;;;;;;26.63;18.33;;;10.90;99.90;;;;;;4820276;29;20241;-64
2023/02/22 10:51:01;;;;;;;25.27;17.67;;;10.90;99.90;;;;;;4820108;29;20232;-64
2023/02/22 10:53:30;;;;;;;26.57;18.13;;;11.00;99.90;;;;;;4819848;29;20651;-64
2023/02/22 10:56:11;;;;;;;28.53;18.27;;;11.10;99.90;;;;;;4819442;29;20243;-64
2023/02/22 10:58:42;;;;;;;28.77;18.37;;;11.10;99.90;;;;;;4820216;29;20601;-64
2023/02/22 11:01:22;;;;;;;26.23;17.80;;;11.20;99.90;;;;;;4818917;29;20233;-64
2023/02/22 11:04:00;;;;;;;26.87;18.10;;;11.10;99.90;;;;;;4819636;29;20232;-64
2023/02/22 11:06:30;;;;;;;26.17;17.53;;;11.10;99.90;;;;;;4818833;29;20316;-64
2023/02/22 11:09:10;;;;;;;28.37;19.00;;;11.20;99.90;;;;;;4819514;29;20241;-64
2023/02/22 11:11:42;;;;;;;26.30;17.83;;;11.30;99.90;;;;;;4819365;29;20238;-64
2023/02/22 11:14:13;;;;;;;24.90;17.67;;;11.40;99.90;;;;;;4818534;29;20239;-64
2023/02/22 11:16:47;;;;;;;26.07;18.63;;;11.40;99.90;;;;;;4817980;29;20257;-64
2023/02/22 11:19:24;;;;;;;28.13;19.27;;;11.50;99.90;;;;;;4819452;29;20579;-64
2023/02/22 11:21:56;;;;;;;26.60;19.67;;;11.50;99.90;;;;;;4818351;29;20257;-64
2023/02/22 11:24:30;;;;;;;26.00;19.07;;;11.60;99.90;;;;;;4818046;29;20240;-64
2023/02/22 11:27:27;;;;;;;27.53;19.87;;;11.70;99.90;;;;;;4819241;29;20241;-64
2023/02/22 11:30:07;;;;;;;28.30;19.47;;;11.70;99.90;;;;;;4819956;29;20609;-64
2023/02/22 11:32:43;;;;;;;27.43;19.10;;;11.70;99.90;;;;;;4818680;29;20671;-64
2023/02/22 11:35:35;;;;;;;28.87;19.40;;;11.60;99.90;;;;;;4819216;29;20250;-64
2023/02/22 11:38:19;;;;;;;26.10;18.37;;;11.60;99.90;;;;;;4816922;29;20235;-64
2023/02/22 11:41:16;;;;;;;26.33;18.07;;;11.70;99.90;;;;;;4818539;29;20234;-64
2023/02/22 11:43:49;;;;;;;25.90;17.93;;;11.70;99.90;;;;;;4817817;29;20253;-64
2023/02/22 11:46:25;;;;;;;25.83;18.43;;;11.70;99.90;;;;;;4817810;29;20238;-64
2023/02/22 11:49:01;;;;;;;27.47;18.67;;;11.70;99.90;;;;;;4817946;29;20237;-64
2023/02/22 11:51:47;;;;;;;26.13;19.23;;;11.50;99.90;;;;;;4816764;29;20591;-64
2023/02/22 11:54:43;;;;;;;23.83;17.53;;;11.70;99.90;;;;;;4806523;29;20245;-64
2023/02/22 11:57:35;;;;;;;25.30;18.87;;;11.90;99.90;;;;;;4812728;29;20226;-64
2023/02/22 12:00:23;;;;;;;26.00;18.23;;;12.10;99.90;;;;;;4822180;29;20262;-64
2023/02/22 12:03:18;;;;;;;25.27;17.20;;;12.10;99.90;;;;;;4821592;29;20730;-64
2023/02/22 12:06:07;;;;;;;27.37;18.77;;;12.30;99.90;;;;;;4821852;29;20269;-64
2023/02/22 12:08:49;;;;;;;23.50;16.77;;;12.40;99.90;;;;;;4820847;29;20235;-64
2023/02/22 12:11:28;;;;;;;25.23;18.63;;;12.40;99.90;;;;;;4821600;29;20222;-64
2023/02/22 12:14:11;;;;;;;24.80;18.40;;;12.40;99.90;;;;;;4821634;29;20598;-64
2023/02/22 12:17:01;;;;;;;24.73;18.37;;;12.50;99.90;;;;;;4820880;29;20237;-64
2023/02/22 12:19:34;;;;;;;26.20;18.47;;;12.40;99.90;;;;;;4805142;29;20287;-64
2023/02/22 12:22:07;;;;;;;26.53;18.43;;;12.20;99.90;;;;;;4821609;29;20257;-64
2023/02/22 12:24:40;;;;;;;25.67;18.37;;;12.20;99.90;;;;;;4822009;29;20242;-64
2023/02/22 12:27:11;;;;;;;25.60;18.03;;;12.10;99.90;;;;;;4821774;29;20246;-64
2023/02/22 12:29:43;;;;;;;24.87;16.87;;;12.10;99.90;;;;;;4821767;29;20611;-64
2023/02/22 12:32:15;;;;;;;19.97;14.53;;;12.10;99.90;;;;;;4821231;29;20238;-64
2023/02/22 12:34:48;;;;;;;21.20;14.53;;;12.10;99.90;;;;;;4821871;29;20767;-64
2023/02/22 12:37:21;;;;;;;21.17;13.63;;;12.20;99.90;;;;;;4821142;29;20279;-64
2023/02/22 12:39:56;;;;;;;19.77;13.83;;;12.30;99.90;;;;;;4821214;29;20243;-64
2023/02/22 12:42:32;;;;;;;20.03;14.10;;;12.30;99.90;;;;;;4821985;29;20242;-64
2023/02/22 12:45:06;;;;;;;19.30;13.20;;;12.20;99.90;;;;;;4821113;29;20237;-64
2023/02/22 12:47:45;;;;;;;20.07;13.67;;;12.20;99.90;;;;;;4821633;29;20239;-64
2023/02/22 12:50:19;;;;;;;19.40;13.43;;;12.10;99.90;;;;;;4821956;29;20233;-64
2023/02/22 12:52:53;;;;;;;18.93;13.20;;;12.10;99.90;;;;;;4822045;29;20239;-64
2023/02/22 12:55:26;;;;;;;20.20;13.50;;;12.10;99.90;;;;;;4821440;29;20246;-64
2023/02/22 12:58:00;;;;;;;19.07;13.10;;;12.00;99.90;;;;;;4821797;29;20227;-64
2023/02/22 13:00:35;;;;;;;19.90;12.97;;;11.90;99.90;;;;;;4821231;29;20233;-64
2023/02/22 13:03:08;;;;;;;19.07;13.33;;;12.00;99.90;;;;;;4820984;29;20751;-64
2023/02/22 13:05:39;;;;;;;20.80;13.13;;;12.00;99.90;;;;;;4820672;29;20242;-64
2023/02/22 13:08:24;;;;;;;18.63;13.10;;;12.00;99.90;;;;;;4821317;29;20242;-64